Front Circassia — V7JX6 — position and weather

sailwx.info

Track history (hours):
 
Tides and Currents Weather Stations Pressure Air Temp Water Temp Dewpoint Dewpoint Depression Visibility Wind Speed Wind Dir Waves Ship Positions

Front Circassia

Last reported at 2017-May-07 16:46 UTC. Time now 2017-May-28 14:15 UTC.
Position N 01°56' E 102°17'.
Warning: this ship's position is 20 days out of date.

Length 333 m; draft 11.5 m.

Type: Tanker. MMSI: 538002584.

Date/timePositionNaut miles runAvg speedWind from/ knotsBaromVisibWave heightAir tempDewpointWater temp
2017-May-07 16:46N 01°56' E 102°17'412.9
2017-May-07 16:29N 01°54' E 102°20'613.2
2017-May-07 16:00N 01°52' E 102°26'713.1
2017-May-07 15:30N 01°49' E 102°32'912.8
2017-May-07 14:48N 01°45' E 102°40'5011.2
2017-May-07 10:24N 01°17' E 103°21'612.6
2017-May-07 09:57N 01°14' E 103°26'612.7
2017-May-07 09:26N 01°13' E 103°32'512.5
2017-May-07 09:00N 01°11' E 103°37'612.0
2017-May-07 08:31N 01°09' E 103°43'5 9.5
2017-May-07 08:01N 01°10' E 103°47'510.0
2017-May-07 07:30N 01°12' E 103°52'5 9.2
2017-May-07 07:00N 01°14' E 103°56'4 7.1
2017-May-07 06:31N 01°15' E 103°60'4 7.9
2017-May-07 05:59N 01°17' E 104°03'1 0.3
2017-May-07 03:08N 01°18' E 104°04'0 0.2
2017-May-07 01:32N 01°17' E 104°04'0 0.0
2017-May-07 01:20N 01°17' E 104°04'0 0.0
2017-May-06 22:44N 01°18' E 104°04'0 0.1
2017-May-06 21:53N 01°17' E 104°04'0 0.1
2017-May-06 19:56N 01°17' E 104°04'0 0.2
2017-May-06 19:23N 01°18' E 104°04'0 0.1
2017-May-06 17:32N 01°18' E 104°04'0 0.1
2017-May-06 17:29N 01°18' E 104°04'0 0.0
2017-May-06 09:29N 01°18' E 104°04'0 0.1
2017-May-06 08:50N 01°18' E 104°04'0 0.2
2017-May-06 08:26N 01°18' E 104°04'0 0.1
2017-May-06 07:56N 01°18' E 104°04'0 0.2
2017-May-06 07:21N 01°18' E 104°04'1 2.0
2017-May-06 06:57N 01°17' E 104°05'2 4.9
2017-May-06 06:30N 01°17' E 104°07'  
2017-Apr-27 19:16N 30°08' E 123°52'  
Track history (hours):
 
Tides and Currents Weather Stations Pressure Air Temp Water Temp Dewpoint Dewpoint Depression Visibility Wind Speed Wind Dir Waves Ship Positions

Front Circassia

Last reported at 2017-May-07 16:46 UTC. Time now 2017-May-28 14:15 UTC.
Position N 01°56' E 102°17'.
Warning: this ship's position is 20 days out of date.

Length 333 m; draft 11.5 m.

Type: Tanker. MMSI: 538002584.

Date/timePositionNaut miles runAvg speedWind from/ knotsBaromVisibWave heightAir tempDewpointWater temp
2017-May-07 16:46N 01°56' E 102°17'412.9
2017-May-07 16:29N 01°54' E 102°20'613.2
2017-May-07 16:00N 01°52' E 102°26'713.1
2017-May-07 15:30N 01°49' E 102°32'912.8
2017-May-07 14:48N 01°45' E 102°40'5011.2
2017-May-07 10:24N 01°17' E 103°21'612.6
2017-May-07 09:57N 01°14' E 103°26'612.7
2017-May-07 09:26N 01°13' E 103°32'512.5
2017-May-07 09:00N 01°11' E 103°37'612.0
2017-May-07 08:31N 01°09' E 103°43'5 9.5
2017-May-07 08:01N 01°10' E 103°47'510.0
2017-May-07 07:30N 01°12' E 103°52'5 9.2
2017-May-07 07:00N 01°14' E 103°56'4 7.1
2017-May-07 06:31N 01°15' E 103°60'4 7.9
2017-May-07 05:59N 01°17' E 104°03'1 0.3
2017-May-07 03:08N 01°18' E 104°04'0 0.2
2017-May-07 01:32N 01°17' E 104°04'0 0.0
2017-May-07 01:20N 01°17' E 104°04'0 0.0
2017-May-06 22:44N 01°18' E 104°04'0 0.1
2017-May-06 21:53N 01°17' E 104°04'0 0.1
2017-May-06 19:56N 01°17' E 104°04'0 0.2
2017-May-06 19:23N 01°18' E 104°04'0 0.1
2017-May-06 17:32N 01°18' E 104°04'0 0.1
2017-May-06 17:29N 01°18' E 104°04'0 0.0
2017-May-06 09:29N 01°18' E 104°04'0 0.1
2017-May-06 08:50N 01°18' E 104°04'0 0.2
2017-May-06 08:26N 01°18' E 104°04'0 0.1
2017-May-06 07:56N 01°18' E 104°04'0 0.2
2017-May-06 07:21N 01°18' E 104°04'1 2.0
2017-May-06 06:57N 01°17' E 104°05'2 4.9
2017-May-06 06:30N 01°17' E 104°07'  
2017-Apr-27 19:16N 30°08' E 123°52'  

Dump ship's entire track history